sensor_id;sensor_type;location;lat;lon;timestamp;temperature;humidity
69543;SHT31;56762;49.494;11.768;2024-01-30T00:02:19;-0.77;86.03
69543;SHT31;56762;49.494;11.768;2024-01-30T00:04:48;-0.73;86.15
69543;SHT31;56762;49.494;11.768;2024-01-30T00:07:15;-0.72;86.18
69543;SHT31;56762;49.494;11.768;2024-01-30T00:09:46;-0.76;86.20
69543;SHT31;56762;49.494;11.768;2024-01-30T00:12:14;-0.79;85.88
69543;SHT31;56762;49.494;11.768;2024-01-30T00:14:42;-0.77;86.38
69543;SHT31;56762;49.494;11.768;2024-01-30T00:17:10;-0.80;85.69
69543;SHT31;56762;49.494;11.768;2024-01-30T00:19:39;-0.80;85.82
69543;SHT31;56762;49.494;11.768;2024-01-30T00:22:07;-0.83;85.70
69543;SHT31;56762;49.494;11.768;2024-01-30T00:24:34;-0.82;85.95
69543;SHT31;56762;49.494;11.768;2024-01-30T00:27:02;-0.77;86.20
69543;SHT31;56762;49.494;11.768;2024-01-30T00:29:30;-0.80;86.16
69543;SHT31;56762;49.494;11.768;2024-01-30T00:32:00;-0.79;86.08
69543;SHT31;56762;49.494;11.768;2024-01-30T00:34:28;-0.79;86.25
69543;SHT31;56762;49.494;11.768;2024-01-30T00:36:57;-0.80;86.90
69543;SHT31;56762;49.494;11.768;2024-01-30T00:39:25;-0.73;86.96
69543;SHT31;56762;49.494;11.768;2024-01-30T00:41:53;-0.72;87.16
69543;SHT31;56762;49.494;11.768;2024-01-30T00:44:21;-0.68;86.87
69543;SHT31;56762;49.494;11.768;2024-01-30T00:46:49;-0.65;87.01
69543;SHT31;56762;49.494;11.768;2024-01-30T00:49:17;-0.62;87.30
69543;SHT31;56762;49.494;11.768;2024-01-30T00:51:45;-0.63;86.69
69543;SHT31;56762;49.494;11.768;2024-01-30T00:54:14;-0.66;86.76
69543;SHT31;56762;49.494;11.768;2024-01-30T00:56:42;-0.63;87.31
69543;SHT31;56762;49.494;11.768;2024-01-30T00:59:10;-0.62;86.88
69543;SHT31;56762;49.494;11.768;2024-01-30T01:01:38;-0.66;86.33
69543;SHT31;56762;49.494;11.768;2024-01-30T01:04:06;-0.69;86.24
69543;SHT31;56762;49.494;11.768;2024-01-30T01:06:34;-0.68;86.92
69543;SHT31;56762;49.494;11.768;2024-01-30T01:09:03;-0.73;86.07
69543;SHT31;56762;49.494;11.768;2024-01-30T01:11:32;-0.72;86.61
69543;SHT31;56762;49.494;11.768;2024-01-30T01:14:00;-0.73;86.21
69543;SHT31;56762;49.494;11.768;2024-01-30T01:16:28;-0.75;86.94
69543;SHT31;56762;49.494;11.768;2024-01-30T01:18:56;-0.77;86.03
69543;SHT31;56762;49.494;11.768;2024-01-30T01:21:23;-0.80;86.42
69543;SHT31;56762;49.494;11.768;2024-01-30T01:23:51;-0.86;85.83
69543;SHT31;56762;49.494;11.768;2024-01-30T01:26:19;-0.90;85.43
69543;SHT31;56762;49.494;11.768;2024-01-30T01:28:49;-0.96;85.14
69543;SHT31;56762;49.494;11.768;2024-01-30T01:31:17;-1.04;85.16
69543;SHT31;56762;49.494;11.768;2024-01-30T01:33:45;-1.06;85.44
69543;SHT31;56762;49.494;11.768;2024-01-30T01:36:13;-1.04;86.21
69543;SHT31;56762;49.494;11.768;2024-01-30T01:38:41;-1.03;85.86
69543;SHT31;56762;49.494;11.768;2024-01-30T01:41:09;-1.06;86.14
69543;SHT31;56762;49.494;11.768;2024-01-30T01:43:37;-1.04;86.46
69543;SHT31;56762;49.494;11.768;2024-01-30T01:46:07;-1.07;86.78
69543;SHT31;56762;49.494;11.768;2024-01-30T01:48:36;-1.07;86.90
69543;SHT31;56762;49.494;11.768;2024-01-30T01:51:06;-1.08;86.87
69543;SHT31;56762;49.494;11.768;2024-01-30T01:53:35;-1.13;86.33
69543;SHT31;56762;49.494;11.768;2024-01-30T01:56:02;-1.20;85.22
69543;SHT31;56762;49.494;11.768;2024-01-30T01:58:30;-1.20;86.43
69543;SHT31;56762;49.494;11.768;2024-01-30T02:00:59;-1.23;86.22
69543;SHT31;56762;49.494;11.768;2024-01-30T02:03:28;-1.20;86.40
69543;SHT31;56762;49.494;11.768;2024-01-30T02:05:56;-1.20;86.38
69543;SHT31;56762;49.494;11.768;2024-01-30T02:08:24;-1.17;85.98
69543;SHT31;56762;49.494;11.768;2024-01-30T02:10:52;-1.17;85.96
69543;SHT31;56762;49.494;11.768;2024-01-30T02:13:21;-1.23;85.76
69543;SHT31;56762;49.494;11.768;2024-01-30T02:15:49;-1.21;85.79
69543;SHT31;56762;49.494;11.768;2024-01-30T02:18:19;-1.21;86.38
69543;SHT31;56762;49.494;11.768;2024-01-30T02:20:49;-1.25;86.07
69543;SHT31;56762;49.494;11.768;2024-01-30T02:23:22;-1.27;87.08
69543;SHT31;56762;49.494;11.768;2024-01-30T02:25:51;-1.25;85.93
69543;SHT31;56762;49.494;11.768;2024-01-30T02:28:20;-1.28;86.17
69543;SHT31;56762;49.494;11.768;2024-01-30T02:30:47;-1.28;86.65
69543;SHT31;56762;49.494;11.768;2024-01-30T02:33:15;-1.28;86.42
69543;SHT31;56762;49.494;11.768;2024-01-30T02:35:43;-1.25;86.72
69543;SHT31;56762;49.494;11.768;2024-01-30T02:38:11;-1.30;86.68
69543;SHT31;56762;49.494;11.768;2024-01-30T02:40:40;-1.33;86.72
69543;SHT31;56762;49.494;11.768;2024-01-30T02:43:08;-1.31;86.20
69543;SHT31;56762;49.494;11.768;2024-01-30T02:45:36;-1.35;85.70
69543;SHT31;56762;49.494;11.768;2024-01-30T02:48:05;-1.38;85.79
69543;SHT31;56762;49.494;11.768;2024-01-30T02:50:33;-1.38;86.48
69543;SHT31;56762;49.494;11.768;2024-01-30T02:53:01;-1.38;85.87
69543;SHT31;56762;49.494;11.768;2024-01-30T02:55:29;-1.41;85.68
69543;SHT31;56762;49.494;11.768;2024-01-30T02:57:58;-1.37;86.24
69543;SHT31;56762;49.494;11.768;2024-01-30T03:00:26;-1.38;86.64
69543;SHT31;56762;49.494;11.768;2024-01-30T03:02:54;-1.41;86.18
69543;SHT31;56762;49.494;11.768;2024-01-30T03:05:22;-1.40;86.70
69543;SHT31;56762;49.494;11.768;2024-01-30T03:07:50;-1.38;86.38
69543;SHT31;56762;49.494;11.768;2024-01-30T03:10:18;-1.41;86.32
69543;SHT31;56762;49.494;11.768;2024-01-30T03:12:46;-1.43;86.45
69543;SHT31;56762;49.494;11.768;2024-01-30T03:15:15;-1.44;86.03
69543;SHT31;56762;49.494;11.768;2024-01-30T03:17:43;-1.50;86.25
69543;SHT31;56762;49.494;11.768;2024-01-30T03:20:11;-1.50;86.74
69543;SHT31;56762;49.494;11.768;2024-01-30T03:22:39;-1.51;86.66
69543;SHT31;56762;49.494;11.768;2024-01-30T03:25:07;-1.48;87.02
69543;SHT31;56762;49.494;11.768;2024-01-30T03:27:35;-1.43;87.17
69543;SHT31;56762;49.494;11.768;2024-01-30T03:30:04;-1.44;86.47
69543;SHT31;56762;49.494;11.768;2024-01-30T03:32:34;-1.47;86.72
69543;SHT31;56762;49.494;11.768;2024-01-30T03:35:01;-1.47;87.40
69543;SHT31;56762;49.494;11.768;2024-01-30T03:37:30;-1.45;86.69
69543;SHT31;56762;49.494;11.768;2024-01-30T03:39:57;-1.52;87.44
69543;SHT31;56762;49.494;11.768;2024-01-30T03:42:26;-1.48;87.32
69543;SHT31;56762;49.494;11.768;2024-01-30T03:44:53;-1.43;87.83
69543;SHT31;56762;49.494;11.768;2024-01-30T03:47:21;-1.40;87.50
69543;SHT31;56762;49.494;11.768;2024-01-30T03:49:51;-1.37;87.59
69543;SHT31;56762;49.494;11.768;2024-01-30T03:52:18;-1.38;86.90
69543;SHT31;56762;49.494;11.768;2024-01-30T03:54:46;-1.35;86.69
69543;SHT31;56762;49.494;11.768;2024-01-30T03:57:14;-1.38;86.44
69543;SHT31;56762;49.494;11.768;2024-01-30T03:59:42;-1.41;86.33
69543;SHT31;56762;49.494;11.768;2024-01-30T04:02:10;-1.44;86.43
69543;SHT31;56762;49.494;11.768;2024-01-30T04:04:38;-1.40;87.10
69543;SHT31;56762;49.494;11.768;2024-01-30T04:07:08;-1.41;87.44
69543;SHT31;56762;49.494;11.768;2024-01-30T04:09:36;-1.47;86.88
69543;SHT31;56762;49.494;11.768;2024-01-30T04:12:04;-1.47;87.65
69543;SHT31;56762;49.494;11.768;2024-01-30T04:14:32;-1.41;87.15
69543;SHT31;56762;49.494;11.768;2024-01-30T04:16:59;-1.48;87.76
69543;SHT31;56762;49.494;11.768;2024-01-30T04:19:27;-1.45;87.84
69543;SHT31;56762;49.494;11.768;2024-01-30T04:21:56;-1.47;87.78
69543;SHT31;56762;49.494;11.768;2024-01-30T04:24:25;-1.41;88.04
69543;SHT31;56762;49.494;11.768;2024-01-30T04:26:53;-1.38;87.79
69543;SHT31;56762;49.494;11.768;2024-01-30T04:29:21;-1.38;88.15
69543;SHT31;56762;49.494;11.768;2024-01-30T04:31:49;-1.37;87.88
69543;SHT31;56762;49.494;11.768;2024-01-30T04:34:17;-1.33;88.52
69543;SHT31;56762;49.494;11.768;2024-01-30T04:36:45;-1.33;87.68
69543;SHT31;56762;49.494;11.768;2024-01-30T04:39:13;-1.37;87.38
69543;SHT31;56762;49.494;11.768;2024-01-30T04:41:42;-1.34;87.73
69543;SHT31;56762;49.494;11.768;2024-01-30T04:44:10;-1.37;88.65
69543;SHT31;56762;49.494;11.768;2024-01-30T04:46:38;-1.34;88.62
69543;SHT31;56762;49.494;11.768;2024-01-30T04:49:05;-1.27;88.65
69543;SHT31;56762;49.494;11.768;2024-01-30T04:51:34;-1.24;88.60
69543;SHT31;56762;49.494;11.768;2024-01-30T04:54:02;-1.17;89.05
69543;SHT31;56762;49.494;11.768;2024-01-30T04:56:30;-1.15;88.42
69543;SHT31;56762;49.494;11.768;2024-01-30T04:58:59;-1.20;87.71
69543;SHT31;56762;49.494;11.768;2024-01-30T05:01:27;-1.15;88.31
69543;SHT31;56762;49.494;11.768;2024-01-30T05:03:55;-1.15;87.85
69543;SHT31;56762;49.494;11.768;2024-01-30T05:06:27;-1.14;88.04
69543;SHT31;56762;49.494;11.768;2024-01-30T05:08:55;-1.14;88.24
69543;SHT31;56762;49.494;11.768;2024-01-30T05:11:23;-1.11;88.54
69543;SHT31;56762;49.494;11.768;2024-01-30T05:13:50;-1.11;88.20
69543;SHT31;56762;49.494;11.768;2024-01-30T05:16:20;-1.07;88.38
69543;SHT31;56762;49.494;11.768;2024-01-30T05:18:48;-1.01;89.09
69543;SHT31;56762;49.494;11.768;2024-01-30T05:21:16;-0.94;88.54
69543;SHT31;56762;49.494;11.768;2024-01-30T05:23:43;-0.93;88.55
69543;SHT31;56762;49.494;11.768;2024-01-30T05:26:11;-0.96;88.04
69543;SHT31;56762;49.494;11.768;2024-01-30T05:28:39;-0.99;87.89
69543;SHT31;56762;49.494;11.768;2024-01-30T05:31:07;-0.96;87.84
69543;SHT31;56762;49.494;11.768;2024-01-30T05:33:37;-1.04;87.54
69543;SHT31;56762;49.494;11.768;2024-01-30T05:36:05;-1.06;87.75
69543;SHT31;56762;49.494;11.768;2024-01-30T05:38:33;-1.08;87.71
69543;SHT31;56762;49.494;11.768;2024-01-30T05:41:00;-1.11;87.73
69543;SHT31;56762;49.494;11.768;2024-01-30T05:43:29;-1.15;87.88
69543;SHT31;56762;49.494;11.768;2024-01-30T05:45:56;-1.14;87.68
69543;SHT31;56762;49.494;11.768;2024-01-30T05:48:24;-1.17;87.76
69543;SHT31;56762;49.494;11.768;2024-01-30T05:50:54;-1.14;87.80
69543;SHT31;56762;49.494;11.768;2024-01-30T05:53:22;-1.13;88.53
69543;SHT31;56762;49.494;11.768;2024-01-30T05:55:49;-1.10;88.32
69543;SHT31;56762;49.494;11.768;2024-01-30T05:58:17;-1.13;88.12
69543;SHT31;56762;49.494;11.768;2024-01-30T06:00:45;-1.04;88.55
69543;SHT31;56762;49.494;11.768;2024-01-30T06:03:13;-1.01;88.29
69543;SHT31;56762;49.494;11.768;2024-01-30T06:05:41;-1.04;88.15
69543;SHT31;56762;49.494;11.768;2024-01-30T06:08:10;-1.08;88.22
69543;SHT31;56762;49.494;11.768;2024-01-30T06:10:38;-1.03;88.46
69543;SHT31;56762;49.494;11.768;2024-01-30T06:13:06;-0.99;88.29
69543;SHT31;56762;49.494;11.768;2024-01-30T06:15:35;-0.97;88.07
69543;SHT31;56762;49.494;11.768;2024-01-30T06:18:03;-1.04;87.63
69543;SHT31;56762;49.494;11.768;2024-01-30T06:20:31;-1.00;88.04
69543;SHT31;56762;49.494;11.768;2024-01-30T06:22:59;-1.01;87.21
69543;SHT31;56762;49.494;11.768;2024-01-30T06:25:28;-1.03;87.36
69543;SHT31;56762;49.494;11.768;2024-01-30T06:27:57;-1.07;87.47
69543;SHT31;56762;49.494;11.768;2024-01-30T06:30:24;-1.10;87.38
69543;SHT31;56762;49.494;11.768;2024-01-30T06:32:52;-1.15;87.13
69543;SHT31;56762;49.494;11.768;2024-01-30T06:35:20;-1.18;87.38
69543;SHT31;56762;49.494;11.768;2024-01-30T06:37:48;-1.15;87.71
69543;SHT31;56762;49.494;11.768;2024-01-30T06:40:16;-1.14;87.90
69543;SHT31;56762;49.494;11.768;2024-01-30T06:42:45;-1.14;87.98
69543;SHT31;56762;49.494;11.768;2024-01-30T06:45:13;-1.13;87.36
69543;SHT31;56762;49.494;11.768;2024-01-30T06:47:42;-1.08;87.71
69543;SHT31;56762;49.494;11.768;2024-01-30T06:50:09;-1.08;87.53
69543;SHT31;56762;49.494;11.768;2024-01-30T06:52:38;-1.10;87.54
69543;SHT31;56762;49.494;11.768;2024-01-30T06:55:06;-1.06;87.76
69543;SHT31;56762;49.494;11.768;2024-01-30T06:57:34;-1.10;87.65
69543;SHT31;56762;49.494;11.768;2024-01-30T07:00:04;-1.10;87.66
69543;SHT31;56762;49.494;11.768;2024-01-30T07:02:33;-1.10;87.58
69543;SHT31;56762;49.494;11.768;2024-01-30T07:05:00;-1.07;87.59
69543;SHT31;56762;49.494;11.768;2024-01-30T07:07:29;-1.01;87.79
69543;SHT31;56762;49.494;11.768;2024-01-30T07:09:57;-1.00;87.32
69543;SHT31;56762;49.494;11.768;2024-01-30T07:12:25;-0.99;87.81
69543;SHT31;56762;49.494;11.768;2024-01-30T07:14:53;-0.96;87.36
69543;SHT31;56762;49.494;11.768;2024-01-30T07:17:24;-0.99;87.84
69543;SHT31;56762;49.494;11.768;2024-01-30T07:19:51;-0.92;88.04
69543;SHT31;56762;49.494;11.768;2024-01-30T07:22:20;-0.90;88.01
69543;SHT31;56762;49.494;11.768;2024-01-30T07:24:48;-0.82;88.02
69543;SHT31;56762;49.494;11.768;2024-01-30T07:27:17;-0.75;88.16
69543;SHT31;56762;49.494;11.768;2024-01-30T07:29:45;-0.72;88.25
69543;SHT31;56762;49.494;11.768;2024-01-30T07:32:13;-0.65;87.93
69543;SHT31;56762;49.494;11.768;2024-01-30T07:34:42;-0.62;87.93
69543;SHT31;56762;49.494;11.768;2024-01-30T07:37:28;-0.52;88.93
69543;SHT31;56762;49.494;11.768;2024-01-30T07:39:56;-0.46;88.34
69543;SHT31;56762;49.494;11.768;2024-01-30T07:42:24;-0.41;88.23
69543;SHT31;56762;49.494;11.768;2024-01-30T07:44:52;-0.34;88.00
69543;SHT31;56762;49.494;11.768;2024-01-30T07:47:20;-0.32;87.61
69543;SHT31;56762;49.494;11.768;2024-01-30T07:49:49;-0.24;87.99
69543;SHT31;56762;49.494;11.768;2024-01-30T07:52:17;-0.18;87.91
69543;SHT31;56762;49.494;11.768;2024-01-30T07:54:45;-0.14;87.21
69543;SHT31;56762;49.494;11.768;2024-01-30T07:57:13;-0.08;87.95
69543;SHT31;56762;49.494;11.768;2024-01-30T07:59:42;-0.01;87.88
69543;SHT31;56762;49.494;11.768;2024-01-30T08:02:11;0.03;87.15
69543;SHT31;56762;49.494;11.768;2024-01-30T08:04:39;0.13;87.24
69543;SHT31;56762;49.494;11.768;2024-01-30T08:07:09;0.18;87.37
69543;SHT31;56762;49.494;11.768;2024-01-30T08:09:37;0.23;87.35
69543;SHT31;56762;49.494;11.768;2024-01-30T08:12:05;0.30;87.18
69543;SHT31;56762;49.494;11.768;2024-01-30T08:14:33;0.38;87.45
69543;SHT31;56762;49.494;11.768;2024-01-30T08:17:00;0.41;87.11
69543;SHT31;56762;49.494;11.768;2024-01-30T08:19:28;0.46;86.83
69543;SHT31;56762;49.494;11.768;2024-01-30T08:21:56;0.54;86.90
69543;SHT31;56762;49.494;11.768;2024-01-30T08:24:25;0.61;86.90
69543;SHT31;56762;49.494;11.768;2024-01-30T08:26:53;0.68;86.77
69543;SHT31;56762;49.494;11.768;2024-01-30T08:29:21;0.75;86.80
69543;SHT31;56762;49.494;11.768;2024-01-30T08:31:49;0.85;86.78
69543;SHT31;56762;49.494;11.768;2024-01-30T08:34:17;0.91;86.79
69543;SHT31;56762;49.494;11.768;2024-01-30T08:36:45;0.99;86.83
69543;SHT31;56762;49.494;11.768;2024-01-30T08:39:13;1.09;86.75
69543;SHT31;56762;49.494;11.768;2024-01-30T08:41:42;1.15;86.32
69543;SHT31;56762;49.494;11.768;2024-01-30T08:44:10;1.20;86.42
69543;SHT31;56762;49.494;11.768;2024-01-30T08:46:38;1.26;86.23
69543;SHT31;56762;49.494;11.768;2024-01-30T08:49:06;1.35;85.38
69543;SHT31;56762;49.494;11.768;2024-01-30T08:51:35;1.39;85.92
69543;SHT31;56762;49.494;11.768;2024-01-30T08:54:02;1.39;85.27
69543;SHT31;56762;49.494;11.768;2024-01-30T08:56:31;1.50;85.27
69543;SHT31;56762;49.494;11.768;2024-01-30T08:59:00;1.53;85.26
69543;SHT31;56762;49.494;11.768;2024-01-30T09:01:28;1.60;84.85
69543;SHT31;56762;49.494;11.768;2024-01-30T09:03:56;1.64;84.86
69543;SHT31;56762;49.494;11.768;2024-01-30T09:06:24;1.66;84.73
69543;SHT31;56762;49.494;11.768;2024-01-30T09:08:53;1.73;84.70
69543;SHT31;56762;49.494;11.768;2024-01-30T09:11:21;1.77;85.11
69543;SHT31;56762;49.494;11.768;2024-01-30T09:13:48;1.81;84.89
69543;SHT31;56762;49.494;11.768;2024-01-30T09:16:18;1.85;85.14
69543;SHT31;56762;49.494;11.768;2024-01-30T09:18:45;1.91;84.10
69543;SHT31;56762;49.494;11.768;2024-01-30T09:21:13;1.94;83.60
69543;SHT31;56762;49.494;11.768;2024-01-30T09:23:41;2.02;83.88
69543;SHT31;56762;49.494;11.768;2024-01-30T09:26:09;2.07;83.66
69543;SHT31;56762;49.494;11.768;2024-01-30T09:28:39;2.11;83.37
69543;SHT31;56762;49.494;11.768;2024-01-30T09:31:09;2.15;83.15
69543;SHT31;56762;49.494;11.768;2024-01-30T09:33:38;2.18;82.58
69543;SHT31;56762;49.494;11.768;2024-01-30T09:36:08;2.21;82.67
69543;SHT31;56762;49.494;11.768;2024-01-30T09:38:35;2.28;83.15
69543;SHT31;56762;49.494;11.768;2024-01-30T09:41:08;2.36;83.12
69543;SHT31;56762;49.494;11.768;2024-01-30T09:43:37;2.40;82.63
69543;SHT31;56762;49.494;11.768;2024-01-30T09:46:08;2.42;81.93
69543;SHT31;56762;49.494;11.768;2024-01-30T09:48:41;2.43;81.73
69543;SHT31;56762;49.494;11.768;2024-01-30T09:51:10;2.52;82.27
69543;SHT31;56762;49.494;11.768;2024-01-30T09:53:39;2.52;81.55
69543;SHT31;56762;49.494;11.768;2024-01-30T09:56:07;2.57;82.06
69543;SHT31;56762;49.494;11.768;2024-01-30T09:58:35;2.61;82.12
69543;SHT31;56762;49.494;11.768;2024-01-30T10:01:03;2.69;81.79
69543;SHT31;56762;49.494;11.768;2024-01-30T10:03:31;2.80;82.09
69543;SHT31;56762;49.494;11.768;2024-01-30T10:06:01;2.87;82.32
69543;SHT31;56762;49.494;11.768;2024-01-30T10:08:28;2.99;81.77
69543;SHT31;56762;49.494;11.768;2024-01-30T10:10:56;3.03;81.00
69543;SHT31;56762;49.494;11.768;2024-01-30T10:13:25;3.14;81.31
69543;SHT31;56762;49.494;11.768;2024-01-30T10:15:53;3.22;81.37
69543;SHT31;56762;49.494;11.768;2024-01-30T10:18:22;3.30;80.56
69543;SHT31;56762;49.494;11.768;2024-01-30T10:20:51;3.36;80.34
69543;SHT31;56762;49.494;11.768;2024-01-30T10:23:20;3.48;80.63
69543;SHT31;56762;49.494;11.768;2024-01-30T10:25:48;3.51;79.81
69543;SHT31;56762;49.494;11.768;2024-01-30T10:28:16;3.59;80.03
69543;SHT31;56762;49.494;11.768;2024-01-30T10:30:44;3.69;80.36
69543;SHT31;56762;49.494;11.768;2024-01-30T10:33:12;3.78;80.40
69543;SHT31;56762;49.494;11.768;2024-01-30T10:35:39;3.86;80.11
69543;SHT31;56762;49.494;11.768;2024-01-30T10:38:10;3.96;79.32
69543;SHT31;56762;49.494;11.768;2024-01-30T10:40:40;4.01;78.33
69543;SHT31;56762;49.494;11.768;2024-01-30T10:43:10;4.10;78.62
69543;SHT31;56762;49.494;11.768;2024-01-30T10:45:40;4.14;78.57
69543;SHT31;56762;49.494;11.768;2024-01-30T10:48:12;4.17;78.82
69543;SHT31;56762;49.494;11.768;2024-01-30T10:50:42;4.21;79.07
69543;SHT31;56762;49.494;11.768;2024-01-30T10:53:19;4.24;77.96
69543;SHT31;56762;49.494;11.768;2024-01-30T10:55:50;4.31;78.23
69543;SHT31;56762;49.494;11.768;2024-01-30T10:58:19;4.31;78.26
69543;SHT31;56762;49.494;11.768;2024-01-30T11:00:49;4.38;77.69
69543;SHT31;56762;49.494;11.768;2024-01-30T11:03:18;4.44;77.89
69543;SHT31;56762;49.494;11.768;2024-01-30T11:05:49;4.45;77.65
69543;SHT31;56762;49.494;11.768;2024-01-30T11:08:23;4.50;77.60
69543;SHT31;56762;49.494;11.768;2024-01-30T11:10:56;4.51;76.80
69543;SHT31;56762;49.494;11.768;2024-01-30T11:13:27;4.55;76.92
69543;SHT31;56762;49.494;11.768;2024-01-30T11:15:55;4.55;77.93
69543;SHT31;56762;49.494;11.768;2024-01-30T11:18:24;4.61;77.73
69543;SHT31;56762;49.494;11.768;2024-01-30T11:20:55;4.65;77.36
69543;SHT31;56762;49.494;11.768;2024-01-30T11:23:24;4.71;76.99
69543;SHT31;56762;49.494;11.768;2024-01-30T11:25:53;4.75;77.29
69543;SHT31;56762;49.494;11.768;2024-01-30T11:28:23;4.81;76.93
69543;SHT31;56762;49.494;11.768;2024-01-30T11:30:50;4.83;76.92
69543;SHT31;56762;49.494;11.768;2024-01-30T11:33:27;4.91;76.88
69543;SHT31;56762;49.494;11.768;2024-01-30T11:36:00;4.93;76.37
69543;SHT31;56762;49.494;11.768;2024-01-30T11:38:29;4.97;76.00
69543;SHT31;56762;49.494;11.768;2024-01-30T11:40:57;5.05;76.05
69543;SHT31;56762;49.494;11.768;2024-01-30T11:43:26;5.00;75.41
69543;SHT31;56762;49.494;11.768;2024-01-30T11:45:54;5.06;75.57
69543;SHT31;56762;49.494;11.768;2024-01-30T11:48:22;5.13;75.69
69543;SHT31;56762;49.494;11.768;2024-01-30T11:50:50;5.19;76.06
69543;SHT31;56762;49.494;11.768;2024-01-30T11:53:18;5.29;75.10
69543;SHT31;56762;49.494;11.768;2024-01-30T11:55:49;5.32;74.90
69543;SHT31;56762;49.494;11.768;2024-01-30T11:58:17;5.36;74.73
69543;SHT31;56762;49.494;11.768;2024-01-30T12:00:54;5.36;74.95
69543;SHT31;56762;49.494;11.768;2024-01-30T12:03:23;5.39;74.58
69543;SHT31;56762;49.494;11.768;2024-01-30T12:05:55;5.32;74.10
69543;SHT31;56762;49.494;11.768;2024-01-30T12:08:23;5.33;74.80
69543;SHT31;56762;49.494;11.768;2024-01-30T12:10:55;5.39;73.84
69543;SHT31;56762;49.494;11.768;2024-01-30T12:13:24;5.36;74.20
69543;SHT31;56762;49.494;11.768;2024-01-30T12:15:56;5.34;74.42
69543;SHT31;56762;49.494;11.768;2024-01-30T12:18:24;5.36;74.64
69543;SHT31;56762;49.494;11.768;2024-01-30T12:20:58;5.40;75.20
69543;SHT31;56762;49.494;11.768;2024-01-30T12:23:27;5.42;74.63
69543;SHT31;56762;49.494;11.768;2024-01-30T12:25:56;5.43;74.79
69543;SHT31;56762;49.494;11.768;2024-01-30T12:28:24;5.46;74.75
69543;SHT31;56762;49.494;11.768;2024-01-30T12:30:57;5.48;74.32
69543;SHT31;56762;49.494;11.768;2024-01-30T12:33:30;5.53;75.02
69543;SHT31;56762;49.494;11.768;2024-01-30T12:36:01;5.60;74.71
69543;SHT31;56762;49.494;11.768;2024-01-30T12:38:30;5.64;74.96
69543;SHT31;56762;49.494;11.768;2024-01-30T12:40:58;5.70;74.80
69543;SHT31;56762;49.494;11.768;2024-01-30T12:43:27;5.74;74.19
69543;SHT31;56762;49.494;11.768;2024-01-30T12:46:05;5.75;74.69
69543;SHT31;56762;49.494;11.768;2024-01-30T12:48:33;5.81;74.09
69543;SHT31;56762;49.494;11.768;2024-01-30T12:51:01;5.84;74.01
69543;SHT31;56762;49.494;11.768;2024-01-30T12:53:29;5.90;73.72
69543;SHT31;56762;49.494;11.768;2024-01-30T12:55:57;5.94;74.01
69543;SHT31;56762;49.494;11.768;2024-01-30T12:58:25;5.99;74.32
69543;SHT31;56762;49.494;11.768;2024-01-30T13:00:54;5.98;73.65
69543;SHT31;56762;49.494;11.768;2024-01-30T13:03:23;6.06;74.04
69543;SHT31;56762;49.494;11.768;2024-01-30T13:05:51;6.08;73.76
69543;SHT31;56762;49.494;11.768;2024-01-30T13:08:19;6.12;73.67
69543;SHT31;56762;49.494;11.768;2024-01-30T13:10:47;6.13;72.90
69543;SHT31;56762;49.494;11.768;2024-01-30T13:13:16;6.15;73.04
69543;SHT31;56762;49.494;11.768;2024-01-30T13:15:46;6.16;73.41
69543;SHT31;56762;49.494;11.768;2024-01-30T13:18:14;6.19;72.89
69543;SHT31;56762;49.494;11.768;2024-01-30T13:20:45;6.23;74.01
69543;SHT31;56762;49.494;11.768;2024-01-30T13:23:12;6.23;73.22
69543;SHT31;56762;49.494;11.768;2024-01-30T13:25:41;6.26;72.78
69543;SHT31;56762;49.494;11.768;2024-01-30T13:28:08;6.22;72.86
69543;SHT31;56762;49.494;11.768;2024-01-30T13:30:36;6.26;72.92
69543;SHT31;56762;49.494;11.768;2024-01-30T13:33:04;6.26;73.63
69543;SHT31;56762;49.494;11.768;2024-01-30T13:35:32;6.29;73.53
69543;SHT31;56762;49.494;11.768;2024-01-30T13:38:01;6.26;72.70
69543;SHT31;56762;49.494;11.768;2024-01-30T13:40:29;6.26;72.85
69543;SHT31;56762;49.494;11.768;2024-01-30T13:42:57;6.26;73.06
69543;SHT31;56762;49.494;11.768;2024-01-30T13:45:25;6.28;73.22
69543;SHT31;56762;49.494;11.768;2024-01-30T13:47:53;6.28;73.41
69543;SHT31;56762;49.494;11.768;2024-01-30T13:50:22;6.25;73.14
69543;SHT31;56762;49.494;11.768;2024-01-30T13:52:49;6.26;73.62
69543;SHT31;56762;49.494;11.768;2024-01-30T13:55:19;6.15;72.52
69543;SHT31;56762;49.494;11.768;2024-01-30T13:57:46;6.16;73.00
69543;SHT31;56762;49.494;11.768;2024-01-30T14:00:17;6.13;73.18
69543;SHT31;56762;49.494;11.768;2024-01-30T14:02:45;6.11;73.14
69543;SHT31;56762;49.494;11.768;2024-01-30T14:05:13;6.09;73.10
69543;SHT31;56762;49.494;11.768;2024-01-30T14:07:43;6.09;73.66
69543;SHT31;56762;49.494;11.768;2024-01-30T14:10:10;6.08;73.57
69543;SHT31;56762;49.494;11.768;2024-01-30T14:12:42;6.09;73.74
69543;SHT31;56762;49.494;11.768;2024-01-30T14:15:11;6.08;74.14
69543;SHT31;56762;49.494;11.768;2024-01-30T14:17:53;6.08;74.61
69543;SHT31;56762;49.494;11.768;2024-01-30T14:20:22;6.08;74.51
69543;SHT31;56762;49.494;11.768;2024-01-30T14:22:51;6.09;74.28
69543;SHT31;56762;49.494;11.768;2024-01-30T14:25:20;6.08;74.47
69543;SHT31;56762;49.494;11.768;2024-01-30T14:27:49;6.08;73.89
69543;SHT31;56762;49.494;11.768;2024-01-30T14:30:17;6.05;73.77
69543;SHT31;56762;49.494;11.768;2024-01-30T14:32:45;6.05;73.81
69543;SHT31;56762;49.494;11.768;2024-01-30T14:35:13;6.04;74.12
69543;SHT31;56762;49.494;11.768;2024-01-30T14:37:41;5.99;74.37
69543;SHT31;56762;49.494;11.768;2024-01-30T14:40:09;5.98;74.75
69543;SHT31;56762;49.494;11.768;2024-01-30T14:42:38;5.97;74.08
69543;SHT31;56762;49.494;11.768;2024-01-30T14:45:07;5.91;75.05
69543;SHT31;56762;49.494;11.768;2024-01-30T14:47:36;5.91;75.15
69543;SHT31;56762;49.494;11.768;2024-01-30T14:50:05;5.85;74.81
69543;SHT31;56762;49.494;11.768;2024-01-30T14:52:35;5.82;74.25
69543;SHT31;56762;49.494;11.768;2024-01-30T14:55:03;5.79;75.07
69543;SHT31;56762;49.494;11.768;2024-01-30T14:57:32;5.74;75.06
69543;SHT31;56762;49.494;11.768;2024-01-30T15:00:01;5.70;75.28
69543;SHT31;56762;49.494;11.768;2024-01-30T15:02:31;5.67;75.40
69543;SHT31;56762;49.494;11.768;2024-01-30T15:04:58;5.63;75.37
69543;SHT31;56762;49.494;11.768;2024-01-30T15:07:27;5.61;75.50
69543;SHT31;56762;49.494;11.768;2024-01-30T15:10:06;5.54;76.07
69543;SHT31;56762;49.494;11.768;2024-01-30T15:12:34;5.50;76.31
69543;SHT31;56762;49.494;11.768;2024-01-30T15:15:02;5.46;77.13
69543;SHT31;56762;49.494;11.768;2024-01-30T15:17:32;5.43;77.04
69543;SHT31;56762;49.494;11.768;2024-01-30T15:19:59;5.36;76.90
69543;SHT31;56762;49.494;11.768;2024-01-30T15:22:27;5.32;76.59
69543;SHT31;56762;49.494;11.768;2024-01-30T15:24:55;5.29;77.26
69543;SHT31;56762;49.494;11.768;2024-01-30T15:27:24;5.32;77.05
69543;SHT31;56762;49.494;11.768;2024-01-30T15:29:54;5.27;76.98
69543;SHT31;56762;49.494;11.768;2024-01-30T15:32:23;5.24;76.91